Terminal Aerodrome Forecast
Issued by NWS Duluth, MN

Home | Current Version | Previous Version | Text Only | Print | Product List | Glossary On
Versions: 1 2 3 4 5 6 7 8 9 10 11 12 13 14 15 16 17 18 19 20 21 22 23 24 25 26
192
FTUS43 KDLH 230520
TAFDLH
TAF
KDLH 230520Z 2306/2406 34005KT P6SM BKN200
     FM230900 VRB03KT P6SM BKN200
     FM231400 09008KT P6SM SCT200
     FM232000 10012KT P6SM SCT050 BKN100 PROB30 2322/2401 5SM TSRA
      BKN025CB
     FM240100 12009KT 5SM TSRA BR SCT007 BKN015CB=

USA.gov is the U.S. government's official web portal to all federal, state and local government web resources and services.